sensor_id;sensor_type;location;lat;lon;timestamp;pressure;altitude;pressure_sealevel;temperature;humidity
63700;BME280;49845;47.130;142.766;2022-12-07T00:02:25;99832.06;;;-5.23;63.35
63700;BME280;49845;47.130;142.766;2022-12-07T00:05:03;99836.94;;;-5.06;64.41
63700;BME280;49845;47.130;142.766;2022-12-07T00:07:57;99833.97;;;-4.73;63.68
63700;BME280;49845;47.130;142.766;2022-12-07T00:10:51;99847.63;;;-4.71;62.92
63700;BME280;49845;47.130;142.766;2022-12-07T00:13:39;99833.72;;;-4.80;63.08
63700;BME280;49845;47.130;142.766;2022-12-07T00:16:34;99837.44;;;-4.71;62.81
63700;BME280;49845;47.130;142.766;2022-12-07T00:19:25;99847.97;;;-4.62;62.78
63700;BME280;49845;47.130;142.766;2022-12-07T00:22:15;99833.38;;;-4.66;62.26
63700;BME280;49845;47.130;142.766;2022-12-07T00:25:17;99837.19;;;-4.78;62.10
63700;BME280;49845;47.130;142.766;2022-12-07T00:27:58;99850.41;;;-4.65;62.29
63700;BME280;49845;47.130;142.766;2022-12-07T00:31:15;99844.25;;;-4.70;61.87
63700;BME280;49845;47.130;142.766;2022-12-07T00:34:19;99843.50;;;-4.68;61.45
63700;BME280;49845;47.130;142.766;2022-12-07T00:37:13;99851.22;;;-4.66;61.81
63700;BME280;49845;47.130;142.766;2022-12-07T00:39:51;99852.72;;;-4.71;61.31
63700;BME280;49845;47.130;142.766;2022-12-07T00:42:44;99849.25;;;-4.73;61.43
63700;BME280;49845;47.130;142.766;2022-12-07T00:45:23;99846.13;;;-4.66;61.33
63700;BME280;49845;47.130;142.766;2022-12-07T00:48:10;99867.66;;;-4.36;61.96
63700;BME280;49845;47.130;142.766;2022-12-07T00:50:59;99844.31;;;-4.22;61.17
63700;BME280;49845;47.130;142.766;2022-12-07T00:53:47;99834.94;;;-4.23;61.31
63700;BME280;49845;47.130;142.766;2022-12-07T00:56:29;99805.03;;;-4.51;59.82
63700;BME280;49845;47.130;142.766;2022-12-07T00:59:10;99825.34;;;-4.30;59.67
63700;BME280;49845;47.130;142.766;2022-12-07T01:01:54;99837.94;;;-4.11;59.89
63700;BME280;49845;47.130;142.766;2022-12-07T01:04:47;99840.88;;;-4.00;60.03
63700;BME280;49845;47.130;142.766;2022-12-07T01:07:43;99838.56;;;-3.93;60.15
63700;BME280;49845;47.130;142.766;2022-12-07T01:10:35;99831.19;;;-3.85;59.92
63700;BME280;49845;47.130;142.766;2022-12-07T01:13:25;99832.19;;;-3.81;59.56
63700;BME280;49845;47.130;142.766;2022-12-07T01:16:16;99829.38;;;-3.87;59.59
63700;BME280;49845;47.130;142.766;2022-12-07T01:19:01;99775.19;;;-4.06;59.41
63700;BME280;49845;47.130;142.766;2022-12-07T01:22:00;99831.06;;;-3.64;58.44
63700;BME280;49845;47.130;142.766;2022-12-07T01:24:37;99824.50;;;-3.56;58.95
63700;BME280;49845;47.130;142.766;2022-12-07T01:27:17;99832.00;;;-3.35;58.13
63700;BME280;49845;47.130;142.766;2022-12-07T01:29:54;99825.50;;;-3.25;58.71
63700;BME280;49845;47.130;142.766;2022-12-07T01:32:41;99819.06;;;-3.14;58.11
63700;BME280;49845;47.130;142.766;2022-12-07T01:35:27;99814.50;;;-2.95;58.00
63700;BME280;49845;47.130;142.766;2022-12-07T01:41:20;99808.50;;;-2.69;58.02
63700;BME280;49845;47.130;142.766;2022-12-07T01:44:22;99805.28;;;-2.62;58.01
63700;BME280;49845;47.130;142.766;2022-12-07T01:47:16;99779.84;;;-2.86;58.08
63700;BME280;49845;47.130;142.766;2022-12-07T01:49:53;99813.25;;;-2.81;58.47
63700;BME280;49845;47.130;142.766;2022-12-07T01:52:52;99817.97;;;-2.93;59.56
63700;BME280;49845;47.130;142.766;2022-12-07T01:55:50;99809.00;;;-3.08;60.73
63700;BME280;49845;47.130;142.766;2022-12-07T01:58:42;99811.38;;;-3.14;60.16
63700;BME280;49845;47.130;142.766;2022-12-07T02:01:23;99825.31;;;-3.31;61.33
63700;BME280;49845;47.130;142.766;2022-12-07T02:04:09;99768.53;;;-3.75;62.00
63700;BME280;49845;47.130;142.766;2022-12-07T02:07:00;99827.72;;;-3.36;63.03
63700;BME280;49845;47.130;142.766;2022-12-07T02:09:45;99826.34;;;-3.26;63.86
63700;BME280;49845;47.130;142.766;2022-12-07T02:12:21;99828.09;;;-3.51;63.89
63700;BME280;49845;47.130;142.766;2022-12-07T02:15:09;99829.72;;;-3.78;64.98
63700;BME280;49845;47.130;142.766;2022-12-07T02:17:55;99840.75;;;-3.79;66.07
63700;BME280;49845;47.130;142.766;2022-12-07T02:20:44;99836.41;;;-3.82;66.22
63700;BME280;49845;47.130;142.766;2022-12-07T02:24:09;99837.16;;;-3.84;66.70
63700;BME280;49845;47.130;142.766;2022-12-07T02:27:42;99824.09;;;-3.68;66.92
63700;BME280;49845;47.130;142.766;2022-12-07T02:30:34;99799.25;;;-3.74;67.24
63700;BME280;49845;47.130;142.766;2022-12-07T02:33:22;99823.38;;;-3.38;67.56
63700;BME280;49845;47.130;142.766;2022-12-07T02:36:17;99799.94;;;-3.25;67.58
63700;BME280;49845;47.130;142.766;2022-12-07T02:38:58;99803.34;;;-3.26;67.50
63700;BME280;49845;47.130;142.766;2022-12-07T02:41:37;99801.69;;;-3.24;67.33
63700;BME280;49845;47.130;142.766;2022-12-07T02:44:47;99799.84;;;-3.28;67.34
63700;BME280;49845;47.130;142.766;2022-12-07T02:50:47;99793.50;;;-3.14;68.22
63700;BME280;49845;47.130;142.766;2022-12-07T02:53:40;99788.47;;;-3.11;67.72
63700;BME280;49845;47.130;142.766;2022-12-07T02:56:24;99786.94;;;-3.06;67.55
63700;BME280;49845;47.130;142.766;2022-12-07T02:59:22;99787.22;;;-2.96;67.10
63700;BME280;49845;47.130;142.766;2022-12-07T03:02:20;99775.75;;;-3.09;66.30
63700;BME280;49845;47.130;142.766;2022-12-07T03:05:42;99773.22;;;-3.08;66.20
63700;BME280;49845;47.130;142.766;2022-12-07T03:08:31;99694.97;;;-3.60;65.77
63700;BME280;49845;47.130;142.766;2022-12-07T03:11:45;99767.16;;;-3.11;64.96
63700;BME280;49845;47.130;142.766;2022-12-07T03:14:38;99770.84;;;-3.30;65.24
63700;BME280;49845;47.130;142.766;2022-12-07T03:17:38;99763.22;;;-3.29;65.21
63700;BME280;49845;47.130;142.766;2022-12-07T03:20:59;99764.06;;;-3.01;65.20
63700;BME280;49845;47.130;142.766;2022-12-07T03:23:47;99765.75;;;-2.73;63.91
63700;BME280;49845;47.130;142.766;2022-12-07T03:26:24;99760.63;;;-2.73;64.13
63700;BME280;49845;47.130;142.766;2022-12-07T03:29:22;99621.22;;;-3.51;64.27
63700;BME280;49845;47.130;142.766;2022-12-07T03:32:23;99756.84;;;-2.57;64.36
63700;BME280;49845;47.130;142.766;2022-12-07T03:35:16;99762.97;;;-2.50;63.40
63700;BME280;49845;47.130;142.766;2022-12-07T03:38:20;99763.16;;;-2.44;62.90
63700;BME280;49845;47.130;142.766;2022-12-07T03:41:17;99756.13;;;-2.51;62.38
63700;BME280;49845;47.130;142.766;2022-12-07T03:44:09;99761.81;;;-2.62;62.54
63700;BME280;49845;47.130;142.766;2022-12-07T03:47:20;99748.22;;;-2.89;62.86
63700;BME280;49845;47.130;142.766;2022-12-07T03:50:07;99762.28;;;-3.04;63.24
63700;BME280;49845;47.130;142.766;2022-12-07T03:52:52;99762.63;;;-3.20;63.92
63700;BME280;49845;47.130;142.766;2022-12-07T03:55:55;99756.97;;;-3.38;64.08
63700;BME280;49845;47.130;142.766;2022-12-07T03:58:43;99755.72;;;-3.51;64.28
63700;BME280;49845;47.130;142.766;2022-12-07T04:01:26;99760.06;;;-3.49;64.78
63700;BME280;49845;47.130;142.766;2022-12-07T04:04:06;99763.63;;;-3.43;64.66
63700;BME280;49845;47.130;142.766;2022-12-07T04:06:54;99755.03;;;-3.45;65.08
63700;BME280;49845;47.130;142.766;2022-12-07T04:09:39;99763.31;;;-3.53;63.99
63700;BME280;49845;47.130;142.766;2022-12-07T04:12:42;99746.25;;;-3.54;63.90
63700;BME280;49845;47.130;142.766;2022-12-07T04:15:28;99762.16;;;-3.35;63.56
63700;BME280;49845;47.130;142.766;2022-12-07T04:18:15;99764.38;;;-3.19;63.10
63700;BME280;49845;47.130;142.766;2022-12-07T04:20:53;99763.47;;;-2.92;63.06
63700;BME280;49845;47.130;142.766;2022-12-07T04:23:44;99771.03;;;-2.67;62.89
63700;BME280;49845;47.130;142.766;2022-12-07T04:26:39;99772.41;;;-2.78;62.35
63700;BME280;49845;47.130;142.766;2022-12-07T04:29:28;99780.56;;;-2.91;62.68
63700;BME280;49845;47.130;142.766;2022-12-07T04:32:16;99785.22;;;-3.07;62.45
63700;BME280;49845;47.130;142.766;2022-12-07T04:35:27;99790.13;;;-3.13;63.32
63700;BME280;49845;47.130;142.766;2022-12-07T04:38:21;99791.28;;;-3.30;63.34
63700;BME280;49845;47.130;142.766;2022-12-07T04:41:06;99796.38;;;-3.30;64.11
63700;BME280;49845;47.130;142.766;2022-12-07T04:43:55;99806.59;;;-3.30;64.74
63700;BME280;49845;47.130;142.766;2022-12-07T04:46:40;99800.09;;;-3.48;65.18
63700;BME280;49845;47.130;142.766;2022-12-07T04:49:27;99803.69;;;-3.68;65.24
63700;BME280;49845;47.130;142.766;2022-12-07T04:52:14;99798.16;;;-3.80;65.73
63700;BME280;49845;47.130;142.766;2022-12-07T04:55:00;99815.09;;;-3.82;65.72
63700;BME280;49845;47.130;142.766;2022-12-07T04:58:20;99809.38;;;-4.01;65.64
63700;BME280;49845;47.130;142.766;2022-12-07T05:01:31;99807.84;;;-3.96;65.75
63700;BME280;49845;47.130;142.766;2022-12-07T05:04:24;99764.53;;;-4.18;65.68
63700;BME280;49845;47.130;142.766;2022-12-07T05:07:03;99807.50;;;-4.06;65.94
63700;BME280;49845;47.130;142.766;2022-12-07T05:09:41;99799.06;;;-4.04;65.95
63700;BME280;49845;47.130;142.766;2022-12-07T05:12:28;99805.69;;;-4.09;65.96
63700;BME280;49845;47.130;142.766;2022-12-07T05:15:06;99798.53;;;-4.19;65.72
63700;BME280;49845;47.130;142.766;2022-12-07T05:17:44;99807.53;;;-4.05;66.16
63700;BME280;49845;47.130;142.766;2022-12-07T05:20:36;99823.16;;;-3.96;65.86
63700;BME280;49845;47.130;142.766;2022-12-07T05:23:20;99808.25;;;-4.09;65.76
63700;BME280;49845;47.130;142.766;2022-12-07T05:26:08;99819.34;;;-4.07;65.95
63700;BME280;49845;47.130;142.766;2022-12-07T05:29:06;99824.16;;;-4.16;65.14
63700;BME280;49845;47.130;142.766;2022-12-07T05:31:50;99832.50;;;-4.20;64.58
63700;BME280;49845;47.130;142.766;2022-12-07T05:34:40;99832.50;;;-4.20;64.58
63700;BME280;49845;47.130;142.766;2022-12-07T05:37:38;99837.84;;;-4.14;64.64
63700;BME280;49845;47.130;142.766;2022-12-07T05:40:29;99840.59;;;-4.08;64.54
63700;BME280;49845;47.130;142.766;2022-12-07T05:43:32;99837.09;;;-4.12;64.32
63700;BME280;49845;47.130;142.766;2022-12-07T05:46:11;99838.63;;;-4.15;64.27
63700;BME280;49845;47.130;142.766;2022-12-07T05:48:56;99748.69;;;-4.82;63.55
63700;BME280;49845;47.130;142.766;2022-12-07T05:51:34;99849.88;;;-4.34;63.13
63700;BME280;49845;47.130;142.766;2022-12-07T05:54:19;99861.03;;;-4.30;63.68
63700;BME280;49845;47.130;142.766;2022-12-07T05:57:07;99857.66;;;-4.29;64.08
63700;BME280;49845;47.130;142.766;2022-12-07T06:00:10;99839.69;;;-4.34;64.56
63700;BME280;49845;47.130;142.766;2022-12-07T06:02:57;99855.59;;;-4.40;64.46
63700;BME280;49845;47.130;142.766;2022-12-07T06:05:52;99842.06;;;-4.61;65.59
63700;BME280;49845;47.130;142.766;2022-12-07T06:08:38;99861.16;;;-4.72;64.95
63700;BME280;49845;47.130;142.766;2022-12-07T06:11:47;99862.84;;;-4.95;65.07
63700;BME280;49845;47.130;142.766;2022-12-07T06:14:36;99858.38;;;-5.22;65.35
63700;BME280;49845;47.130;142.766;2022-12-07T06:17:14;99875.31;;;-5.24;66.02
63700;BME280;49845;47.130;142.766;2022-12-07T06:20:13;99845.75;;;-5.42;66.76
63700;BME280;49845;47.130;142.766;2022-12-07T06:22:54;99870.69;;;-5.33;66.89
63700;BME280;49845;47.130;142.766;2022-12-07T06:25:34;99858.28;;;-5.46;67.13
63700;BME280;49845;47.130;142.766;2022-12-07T06:28:28;99874.88;;;-5.54;66.90
63700;BME280;49845;47.130;142.766;2022-12-07T06:31:06;99888.19;;;-5.61;67.59
63700;BME280;49845;47.130;142.766;2022-12-07T06:34:00;99886.44;;;-5.82;67.29
63700;BME280;49845;47.130;142.766;2022-12-07T06:36:37;99874.97;;;-5.93;68.50
63700;BME280;49845;47.130;142.766;2022-12-07T06:39:34;99715.63;;;-6.91;68.62
63700;BME280;49845;47.130;142.766;2022-12-07T06:42:12;99889.72;;;-6.05;68.56
63700;BME280;49845;47.130;142.766;2022-12-07T06:44:53;99896.53;;;-6.04;69.38
63700;BME280;49845;47.130;142.766;2022-12-07T06:47:52;99899.47;;;-6.15;69.33
63700;BME280;49845;47.130;142.766;2022-12-07T06:50:48;99907.38;;;-6.28;69.89
63700;BME280;49845;47.130;142.766;2022-12-07T06:53:50;99899.84;;;-6.44;70.04
63700;BME280;49845;47.130;142.766;2022-12-07T06:56:37;99922.81;;;-6.61;70.01
63700;BME280;49845;47.130;142.766;2022-12-07T06:59:23;99923.84;;;-6.75;70.49
63700;BME280;49845;47.130;142.766;2022-12-07T07:02:17;99921.34;;;-6.91;70.66
63700;BME280;49845;47.130;142.766;2022-12-07T07:04:56;99922.38;;;-7.06;70.99
63700;BME280;49845;47.130;142.766;2022-12-07T07:07:51;99908.84;;;-7.41;71.18
63700;BME280;49845;47.130;142.766;2022-12-07T07:10:54;99930.19;;;-7.19;72.61
63700;BME280;49845;47.130;142.766;2022-12-07T07:13:40;99926.16;;;-7.66;71.53
63700;BME280;49845;47.130;142.766;2022-12-07T07:16:17;99930.91;;;-7.89;72.12
63700;BME280;49845;47.130;142.766;2022-12-07T07:22:33;99798.75;;;-9.09;73.11
63700;BME280;49845;47.130;142.766;2022-12-07T07:25:10;99962.13;;;-8.22;73.53
63700;BME280;49845;47.130;142.766;2022-12-07T07:27:49;99963.19;;;-8.34;73.60
63700;BME280;49845;47.130;142.766;2022-12-07T07:30:33;99950.53;;;-8.50;74.03
63700;BME280;49845;47.130;142.766;2022-12-07T07:33:13;99970.97;;;-8.47;74.14
63700;BME280;49845;47.130;142.766;2022-12-07T07:35:52;99976.81;;;-8.32;75.19
63700;BME280;49845;47.130;142.766;2022-12-07T07:38:36;99971.44;;;-8.38;75.12
63700;BME280;49845;47.130;142.766;2022-12-07T07:41:24;99984.44;;;-8.48;75.00
63700;BME280;49845;47.130;142.766;2022-12-07T07:44:19;99983.06;;;-8.73;74.36
63700;BME280;49845;47.130;142.766;2022-12-07T07:47:21;99978.28;;;-9.13;75.00
63700;BME280;49845;47.130;142.766;2022-12-07T07:50:19;100000.91;;;-9.16;75.80
63700;BME280;49845;47.130;142.766;2022-12-07T07:53:04;99996.59;;;-9.17;76.75
63700;BME280;49845;47.130;142.766;2022-12-07T07:56:03;100003.06;;;-9.07;76.96
63700;BME280;49845;47.130;142.766;2022-12-07T07:58:52;99943.88;;;-9.39;76.56
63700;BME280;49845;47.130;142.766;2022-12-07T08:01:47;100000.91;;;-9.16;76.95
63700;BME280;49845;47.130;142.766;2022-12-07T08:04:41;100017.47;;;-9.21;77.10
63700;BME280;49845;47.130;142.766;2022-12-07T08:07:31;100014.03;;;-9.36;77.03
63700;BME280;49845;47.130;142.766;2022-12-07T08:10:19;100005.72;;;-9.48;77.44
63700;BME280;49845;47.130;142.766;2022-12-07T08:13:15;100010.44;;;-9.55;77.93
63700;BME280;49845;47.130;142.766;2022-12-07T08:16:05;100002.38;;;-9.62;78.24
63700;BME280;49845;47.130;142.766;2022-12-07T08:18:44;100008.69;;;-9.56;78.54
63700;BME280;49845;47.130;142.766;2022-12-07T08:21:31;100005.88;;;-9.60;78.38
63700;BME280;49845;47.130;142.766;2022-12-07T08:24:15;99999.28;;;-9.58;79.21
63700;BME280;49845;47.130;142.766;2022-12-07T08:26:58;100026.34;;;-9.42;78.68
63700;BME280;49845;47.130;142.766;2022-12-07T08:29:48;100031.53;;;-9.54;78.15
63700;BME280;49845;47.130;142.766;2022-12-07T08:32:29;100019.91;;;-9.65;78.14
63700;BME280;49845;47.130;142.766;2022-12-07T08:35:16;100033.25;;;-9.68;78.15
63700;BME280;49845;47.130;142.766;2022-12-07T08:38:19;100031.25;;;-9.59;78.53
63700;BME280;49845;47.130;142.766;2022-12-07T08:41:41;100034.34;;;-9.49;78.54
63700;BME280;49845;47.130;142.766;2022-12-07T08:44:43;100024.69;;;-9.70;77.43
63700;BME280;49845;47.130;142.766;2022-12-07T08:47:26;100032.34;;;-9.96;77.65
63700;BME280;49845;47.130;142.766;2022-12-07T08:50:18;100044.47;;;-9.91;77.80
63700;BME280;49845;47.130;142.766;2022-12-07T08:53:16;100044.97;;;-9.96;77.82
63700;BME280;49845;47.130;142.766;2022-12-07T08:56:05;100053.50;;;-9.81;78.44
63700;BME280;49845;47.130;142.766;2022-12-07T08:58:47;100000.34;;;-9.96;78.92
63700;BME280;49845;47.130;142.766;2022-12-07T09:01:51;100051.94;;;-9.66;78.33
63700;BME280;49845;47.130;142.766;2022-12-07T09:04:59;100040.78;;;-9.55;78.89
63700;BME280;49845;47.130;142.766;2022-12-07T09:08:04;100042.72;;;-9.50;78.75
63700;BME280;49845;47.130;142.766;2022-12-07T09:10:42;100005.84;;;-9.75;78.56
63700;BME280;49845;47.130;142.766;2022-12-07T09:13:23;100044.06;;;-9.70;78.87
63700;BME280;49845;47.130;142.766;2022-12-07T09:16:04;100064.06;;;-9.73;79.62
63700;BME280;49845;47.130;142.766;2022-12-07T09:19:02;100047.34;;;-9.71;79.82
63700;BME280;49845;47.130;142.766;2022-12-07T09:21:56;100044.91;;;-9.70;80.32
63700;BME280;49845;47.130;142.766;2022-12-07T09:24:42;99989.75;;;-9.90;80.56
63700;BME280;49845;47.130;142.766;2022-12-07T09:27:28;100047.41;;;-9.57;80.55
63700;BME280;49845;47.130;142.766;2022-12-07T09:30:14;100047.81;;;-9.36;81.22
63700;BME280;49845;47.130;142.766;2022-12-07T09:33:04;100055.38;;;-9.07;81.41
63700;BME280;49845;47.130;142.766;2022-12-07T09:35:55;100051.56;;;-8.86;81.20
63700;BME280;49845;47.130;142.766;2022-12-07T09:38:48;100065.00;;;-8.72;80.66
63700;BME280;49845;47.130;142.766;2022-12-07T09:41:31;100074.59;;;-8.66;80.40
63700;BME280;49845;47.130;142.766;2022-12-07T09:44:25;100062.34;;;-8.74;79.72
63700;BME280;49845;47.130;142.766;2022-12-07T09:47:19;100074.41;;;-8.70;79.64
63700;BME280;49845;47.130;142.766;2022-12-07T09:50:06;100083.59;;;-8.72;79.02
63700;BME280;49845;47.130;142.766;2022-12-07T09:52:50;100082.44;;;-8.77;78.77
63700;BME280;49845;47.130;142.766;2022-12-07T09:55:36;100082.28;;;-8.80;78.36
63700;BME280;49845;47.130;142.766;2022-12-07T09:58:42;100090.66;;;-8.81;78.42
63700;BME280;49845;47.130;142.766;2022-12-07T10:01:20;100003.16;;;-9.35;78.50
63700;BME280;49845;47.130;142.766;2022-12-07T10:04:11;100096.06;;;-8.75;78.39
63700;BME280;49845;47.130;142.766;2022-12-07T10:07:04;100102.88;;;-8.74;78.24
63700;BME280;49845;47.130;142.766;2022-12-07T10:09:48;100111.97;;;-8.77;77.74
63700;BME280;49845;47.130;142.766;2022-12-07T10:12:57;100104.09;;;-8.82;77.71
63700;BME280;49845;47.130;142.766;2022-12-07T10:15:56;100009.06;;;-9.35;78.10
63700;BME280;49845;47.130;142.766;2022-12-07T10:18:47;100119.22;;;-8.69;78.10
63700;BME280;49845;47.130;142.766;2022-12-07T10:22:09;100116.00;;;-8.66;77.50
63700;BME280;49845;47.130;142.766;2022-12-07T10:28:15;100114.78;;;-9.16;76.76
63700;BME280;49845;47.130;142.766;2022-12-07T10:31:03;100115.63;;;-9.30;76.96
63700;BME280;49845;47.130;142.766;2022-12-07T10:33:55;100122.81;;;-9.36;76.92
63700;BME280;49845;47.130;142.766;2022-12-07T10:36:49;100125.22;;;-9.52;76.57
63700;BME280;49845;47.130;142.766;2022-12-07T10:39:51;100117.72;;;-9.51;76.82
63700;BME280;49845;47.130;142.766;2022-12-07T10:42:30;100123.25;;;-9.43;77.12
63700;BME280;49845;47.130;142.766;2022-12-07T10:45:18;100122.47;;;-9.42;77.02
63700;BME280;49845;47.130;142.766;2022-12-07T10:48:58;100135.59;;;-9.35;77.12
63700;BME280;49845;47.130;142.766;2022-12-07T10:52:16;100143.06;;;-9.36;77.13
63700;BME280;49845;47.130;142.766;2022-12-07T10:55:11;100137.00;;;-9.25;77.27
63700;BME280;49845;47.130;142.766;2022-12-07T10:58:22;100153.25;;;-9.21;77.07
63700;BME280;49845;47.130;142.766;2022-12-07T11:01:41;100157.25;;;-9.25;77.08
63700;BME280;49845;47.130;142.766;2022-12-07T11:04:34;100151.09;;;-9.15;77.63
63700;BME280;49845;47.130;142.766;2022-12-07T11:07:27;100151.88;;;-8.88;78.45
63700;BME280;49845;47.130;142.766;2022-12-07T11:10:26;100165.44;;;-8.73;78.27
63700;BME280;49845;47.130;142.766;2022-12-07T11:16:51;100047.97;;;-9.47;77.39
63700;BME280;49845;47.130;142.766;2022-12-07T11:19:55;100151.44;;;-8.81;77.60
63700;BME280;49845;47.130;142.766;2022-12-07T11:22:43;100143.06;;;-8.80;77.69
63700;BME280;49845;47.130;142.766;2022-12-07T11:25:32;100124.84;;;-9.02;77.57
63700;BME280;49845;47.130;142.766;2022-12-07T11:28:40;100158.25;;;-8.80;78.00
63700;BME280;49845;47.130;142.766;2022-12-07T11:31:42;100136.25;;;-8.81;77.88
63700;BME280;49845;47.130;142.766;2022-12-07T11:34:59;100152.69;;;-8.59;78.13
63700;BME280;49845;47.130;142.766;2022-12-07T11:38:00;100146.22;;;-8.54;78.29
63700;BME280;49845;47.130;142.766;2022-12-07T11:41:05;100070.72;;;-9.04;77.78
63700;BME280;49845;47.130;142.766;2022-12-07T11:44:27;100163.34;;;-8.50;77.78
63700;BME280;49845;47.130;142.766;2022-12-07T11:47:23;100045.91;;;-9.25;77.44
63700;BME280;49845;47.130;142.766;2022-12-07T11:50:24;100137.63;;;-8.71;77.85
63700;BME280;49845;47.130;142.766;2022-12-07T11:53:29;100160.91;;;-8.63;77.75
63700;BME280;49845;47.130;142.766;2022-12-07T11:56:27;100138.16;;;-8.77;78.27
63700;BME280;49845;47.130;142.766;2022-12-07T11:59:38;100152.84;;;-8.56;78.37
63700;BME280;49845;47.130;142.766;2022-12-07T12:02:43;100157.91;;;-8.56;78.34
63700;BME280;49845;47.130;142.766;2022-12-07T12:05:26;100160.22;;;-8.61;78.62
63700;BME280;49845;47.130;142.766;2022-12-07T12:08:28;100169.44;;;-8.61;78.70
63700;BME280;49845;47.130;142.766;2022-12-07T12:11:54;100164.38;;;-8.61;78.67
63700;BME280;49845;47.130;142.766;2022-12-07T12:21:38;100172.91;;;-8.46;78.19
63700;BME280;49845;47.130;142.766;2022-12-07T12:24:34;100176.47;;;-8.42;77.39
63700;BME280;49845;47.130;142.766;2022-12-07T12:30:35;100163.19;;;-8.53;77.51
63700;BME280;49845;47.130;142.766;2022-12-07T12:33:53;100170.69;;;-8.55;77.47
63700;BME280;49845;47.130;142.766;2022-12-07T12:36:57;100186.75;;;-8.54;77.30
63700;BME280;49845;47.130;142.766;2022-12-07T12:39:40;100179.16;;;-8.54;77.00
63700;BME280;49845;47.130;142.766;2022-12-07T12:42:45;100185.03;;;-8.55;77.40
63700;BME280;49845;47.130;142.766;2022-12-07T12:49:38;100187.88;;;-8.34;77.84
63700;BME280;49845;47.130;142.766;2022-12-07T12:52:55;100180.44;;;-8.31;77.46
63700;BME280;49845;47.130;142.766;2022-12-07T12:58:49;100174.88;;;-8.55;77.54
63700;BME280;49845;47.130;142.766;2022-12-07T13:01:43;100180.50;;;-8.46;77.52
63700;BME280;49845;47.130;142.766;2022-12-07T13:04:39;100174.94;;;-8.39;77.93
63700;BME280;49845;47.130;142.766;2022-12-07T13:18:22;100172.78;;;-8.33;76.71
63700;BME280;49845;47.130;142.766;2022-12-07T13:21:44;100154.97;;;-8.49;76.76
63700;BME280;49845;47.130;142.766;2022-12-07T13:24:33;100184.31;;;-8.38;76.91
63700;BME280;49845;47.130;142.766;2022-12-07T13:27:50;100162.66;;;-8.48;77.00
63700;BME280;49845;47.130;142.766;2022-12-07T13:30:31;100179.56;;;-8.32;77.78
63700;BME280;49845;47.130;142.766;2022-12-07T13:33:18;100178.00;;;-8.30;77.96
63700;BME280;49845;47.130;142.766;2022-12-07T13:36:31;100171.38;;;-8.28;77.69
63700;BME280;49845;47.130;142.766;2022-12-07T13:39:34;100190.09;;;-8.26;77.57
63700;BME280;49845;47.130;142.766;2022-12-07T13:42:31;100182.38;;;-8.12;78.05
63700;BME280;49845;47.130;142.766;2022-12-07T13:45:33;100170.13;;;-8.19;78.11
63700;BME280;49845;47.130;142.766;2022-12-07T13:48:33;100195.66;;;-8.16;77.78
63700;BME280;49845;47.130;142.766;2022-12-07T13:51:23;100130.50;;;-8.63;77.33
63700;BME280;49845;47.130;142.766;2022-12-07T13:54:17;100181.84;;;-8.51;77.44
63700;BME280;49845;47.130;142.766;2022-12-07T13:57:25;100156.06;;;-8.74;77.72
63700;BME280;49845;47.130;142.766;2022-12-07T14:00:06;100165.78;;;-8.66;78.32
63700;BME280;49845;47.130;142.766;2022-12-07T14:06:37;100172.41;;;-8.69;78.32
63700;BME280;49845;47.130;142.766;2022-12-07T14:09:41;100177.84;;;-8.62;78.52
63700;BME280;49845;47.130;142.766;2022-12-07T14:12:36;100143.22;;;-8.77;78.12
63700;BME280;49845;47.130;142.766;2022-12-07T14:15:29;100179.41;;;-8.64;78.08
63700;BME280;49845;47.130;142.766;2022-12-07T14:18:29;100178.84;;;-8.74;77.80
63700;BME280;49845;47.130;142.766;2022-12-07T14:21:37;100178.81;;;-8.88;77.62
63700;BME280;49845;47.130;142.766;2022-12-07T14:24:22;100179.84;;;-9.00;77.81
63700;BME280;49845;47.130;142.766;2022-12-07T14:27:18;100178.25;;;-9.13;77.88
63700;BME280;49845;47.130;142.766;2022-12-07T14:30:19;100126.97;;;-9.51;77.84
63700;BME280;49845;47.130;142.766;2022-12-07T14:33:09;100149.50;;;-9.41;77.92
63700;BME280;49845;47.130;142.766;2022-12-07T14:35:54;100146.22;;;-9.40;78.09
63700;BME280;49845;47.130;142.766;2022-12-07T14:39:05;100176.38;;;-9.43;78.31
63700;BME280;49845;47.130;142.766;2022-12-07T14:42:08;100174.84;;;-9.55;77.99
63700;BME280;49845;47.130;142.766;2022-12-07T14:44:54;100169.38;;;-9.47;78.43
63700;BME280;49845;47.130;142.766;2022-12-07T14:47:52;100174.44;;;-9.47;77.99
63700;BME280;49845;47.130;142.766;2022-12-07T14:50:52;100178.38;;;-9.66;77.35
63700;BME280;49845;47.130;142.766;2022-12-07T14:54:17;100188.19;;;-10.10;77.26
63700;BME280;49845;47.130;142.766;2022-12-07T14:56:57;100182.03;;;-10.14;78.00
63700;BME280;49845;47.130;142.766;2022-12-07T14:59:45;100173.50;;;-10.03;78.74
63700;BME280;49845;47.130;142.766;2022-12-07T15:02:38;100168.84;;;-10.10;79.03
63700;BME280;49845;47.130;142.766;2022-12-07T15:05:22;100126.69;;;-10.37;79.35
63700;BME280;49845;47.130;142.766;2022-12-07T15:08:12;100174.88;;;-10.08;79.56
63700;BME280;49845;47.130;142.766;2022-12-07T15:11:08;100169.72;;;-10.09;79.26
63700;BME280;49845;47.130;142.766;2022-12-07T15:14:04;100150.78;;;-10.29;78.68
63700;BME280;49845;47.130;142.766;2022-12-07T15:16:55;100165.53;;;-10.35;78.32
63700;BME280;49845;47.130;142.766;2022-12-07T15:19:45;100163.41;;;-10.43;78.44
63700;BME280;49845;47.130;142.766;2022-12-07T15:22:36;100166.09;;;-10.53;78.24
63700;BME280;49845;47.130;142.766;2022-12-07T15:25:36;100147.78;;;-10.75;77.97
63700;BME280;49845;47.130;142.766;2022-12-07T15:28:14;100146.69;;;-10.79;77.84
63700;BME280;49845;47.130;142.766;2022-12-07T15:30:54;100140.97;;;-10.76;78.01
63700;BME280;49845;47.130;142.766;2022-12-07T15:33:51;100138.81;;;-10.83;78.03
63700;BME280;49845;47.130;142.766;2022-12-07T15:36:33;100099.47;;;-11.18;77.80